sensor_id;sensor_type;location;lat;lon;timestamp;pressure;altitude;pressure_sealevel;temperature;humidity
65280;BME280;51878;55.748;48.742;2023-06-10T00:03:24;98888.13;;;13.03;100.00
65280;BME280;51878;55.748;48.742;2023-06-10T00:08:27;98924.50;;;13.09;100.00
65280;BME280;51878;55.748;48.742;2023-06-10T00:13:33;98920.22;;;12.88;100.00
65280;BME280;51878;55.748;48.742;2023-06-10T00:18:35;98907.25;;;12.84;100.00
65280;BME280;51878;55.748;48.742;2023-06-10T00:23:40;98935.03;;;12.99;100.00
65280;BME280;51878;55.748;48.742;2023-06-10T00:28:43;98939.22;;;12.95;100.00
65280;BME280;51878;55.748;48.742;2023-06-10T00:33:46;98948.03;;;12.97;100.00
65280;BME280;51878;55.748;48.742;2023-06-10T00:38:49;98933.63;;;12.90;100.00
65280;BME280;51878;55.748;48.742;2023-06-10T00:43:51;98904.75;;;12.75;100.00
65280;BME280;51878;55.748;48.742;2023-06-10T00:48:53;98957.78;;;13.11;100.00
65280;BME280;51878;55.748;48.742;2023-06-10T00:53:56;98895.94;;;12.87;100.00
65280;BME280;51878;55.748;48.742;2023-06-10T00:58:59;98837.72;;;12.43;100.00
65280;BME280;51878;55.748;48.742;2023-06-10T01:04:01;98916.81;;;12.99;100.00
65280;BME280;51878;55.748;48.742;2023-06-10T01:09:32;98967.19;;;13.29;100.00
65280;BME280;51878;55.748;48.742;2023-06-10T01:14:38;98973.88;;;13.33;100.00
65280;BME280;51878;55.748;48.742;2023-06-10T01:19:57;98965.06;;;13.24;100.00
65280;BME280;51878;55.748;48.742;2023-06-10T01:24:59;98933.91;;;13.13;100.00
65280;BME280;51878;55.748;48.742;2023-06-10T01:30:15;98964.00;;;13.38;100.00
65280;BME280;51878;55.748;48.742;2023-06-10T01:35:21;98981.59;;;13.36;100.00
65280;BME280;51878;55.748;48.742;2023-06-10T01:40:28;98989.06;;;13.54;100.00
65280;BME280;51878;55.748;48.742;2023-06-10T01:45:31;98973.06;;;13.64;100.00
65280;BME280;51878;55.748;48.742;2023-06-10T01:50:33;98954.25;;;13.62;100.00
65280;BME280;51878;55.748;48.742;2023-06-10T01:55:35;98927.91;;;13.50;100.00
65280;BME280;51878;55.748;48.742;2023-06-10T02:00:38;98949.44;;;13.58;100.00
65280;BME280;51878;55.748;48.742;2023-06-10T02:05:40;98986.63;;;13.77;100.00
65280;BME280;51878;55.748;48.742;2023-06-10T02:10:42;98979.13;;;13.66;100.00
65280;BME280;51878;55.748;48.742;2023-06-10T02:15:45;98967.41;;;13.66;100.00
65280;BME280;51878;55.748;48.742;2023-06-10T02:20:50;98997.88;;;13.88;100.00
65280;BME280;51878;55.748;48.742;2023-06-10T02:25:52;98989.78;;;13.74;100.00
65280;BME280;51878;55.748;48.742;2023-06-10T02:30:55;98993.19;;;13.70;100.00
65280;BME280;51878;55.748;48.742;2023-06-10T02:35:59;98971.50;;;13.50;100.00
65280;BME280;51878;55.748;48.742;2023-06-10T02:41:01;99000.09;;;13.66;100.00
65280;BME280;51878;55.748;48.742;2023-06-10T02:46:03;99017.88;;;13.75;100.00
65280;BME280;51878;55.748;48.742;2023-06-10T02:51:06;99000.19;;;13.52;100.00
65280;BME280;51878;55.748;48.742;2023-06-10T02:56:08;99054.38;;;13.67;100.00
65280;BME280;51878;55.748;48.742;2023-06-10T03:01:10;99045.00;;;13.56;100.00
65280;BME280;51878;55.748;48.742;2023-06-10T03:06:13;99029.66;;;13.62;100.00
65280;BME280;51878;55.748;48.742;2023-06-10T03:11:16;99044.72;;;13.64;100.00
65280;BME280;51878;55.748;48.742;2023-06-10T03:16:18;99028.22;;;13.59;100.00
65280;BME280;51878;55.748;48.742;2023-06-10T03:21:20;99059.97;;;13.79;100.00
65280;BME280;51878;55.748;48.742;2023-06-10T03:26:22;99012.31;;;13.56;100.00
65280;BME280;51878;55.748;48.742;2023-06-10T03:31:25;99077.06;;;13.99;100.00
65280;BME280;51878;55.748;48.742;2023-06-10T03:36:27;99050.97;;;13.78;100.00
65280;BME280;51878;55.748;48.742;2023-06-10T03:41:31;99058.22;;;13.98;100.00
65280;BME280;51878;55.748;48.742;2023-06-10T03:46:34;99078.31;;;14.35;100.00
65280;BME280;51878;55.748;48.742;2023-06-10T03:51:36;99034.94;;;14.27;100.00
65280;BME280;51878;55.748;48.742;2023-06-10T03:56:39;99046.94;;;14.51;100.00
65280;BME280;51878;55.748;48.742;2023-06-10T04:01:41;99055.34;;;14.50;100.00
65280;BME280;51878;55.748;48.742;2023-06-10T04:06:45;99033.03;;;14.59;100.00
65280;BME280;51878;55.748;48.742;2023-06-10T04:11:48;99077.53;;;14.85;100.00
65280;BME280;51878;55.748;48.742;2023-06-10T04:16:50;99091.38;;;14.83;100.00
65280;BME280;51878;55.748;48.742;2023-06-10T04:21:53;99054.44;;;14.62;100.00
65280;BME280;51878;55.748;48.742;2023-06-10T04:26:55;99072.09;;;14.60;100.00
65280;BME280;51878;55.748;48.742;2023-06-10T04:31:57;99109.94;;;14.75;100.00
65280;BME280;51878;55.748;48.742;2023-06-10T04:37:00;99087.63;;;14.53;100.00
65280;BME280;51878;55.748;48.742;2023-06-10T04:42:02;99124.53;;;14.87;100.00
65280;BME280;51878;55.748;48.742;2023-06-10T04:47:05;99097.47;;;14.85;100.00
65280;BME280;51878;55.748;48.742;2023-06-10T04:52:11;99096.97;;;14.95;100.00
65280;BME280;51878;55.748;48.742;2023-06-10T04:57:18;99003.19;;;14.64;100.00
65280;BME280;51878;55.748;48.742;2023-06-10T05:02:20;99105.53;;;15.42;100.00
65280;BME280;51878;55.748;48.742;2023-06-10T05:07:22;99049.13;;;15.11;100.00
65280;BME280;51878;55.748;48.742;2023-06-10T05:12:24;99065.91;;;15.15;100.00
65280;BME280;51878;55.748;48.742;2023-06-10T05:17:27;99104.09;;;15.21;100.00
65280;BME280;51878;55.748;48.742;2023-06-10T05:22:30;99112.63;;;15.25;100.00
65280;BME280;51878;55.748;48.742;2023-06-10T05:27:32;99155.94;;;15.46;100.00
65280;BME280;51878;55.748;48.742;2023-06-10T05:32:35;99123.81;;;14.98;100.00
65280;BME280;51878;55.748;48.742;2023-06-10T05:37:37;99139.22;;;14.93;100.00
65280;BME280;51878;55.748;48.742;2023-06-10T05:42:39;99135.63;;;14.67;100.00
65280;BME280;51878;55.748;48.742;2023-06-10T05:47:42;99185.25;;;14.82;100.00
65280;BME280;51878;55.748;48.742;2023-06-10T05:52:44;99209.25;;;14.74;100.00
65280;BME280;51878;55.748;48.742;2023-06-10T05:57:46;99199.50;;;14.46;100.00
65280;BME280;51878;55.748;48.742;2023-06-10T06:02:49;99208.34;;;14.41;100.00
65280;BME280;51878;55.748;48.742;2023-06-10T06:07:52;99189.13;;;14.30;100.00
65280;BME280;51878;55.748;48.742;2023-06-10T06:12:55;99249.66;;;14.58;100.00
65280;BME280;51878;55.748;48.742;2023-06-10T06:18:00;99240.19;;;14.54;100.00
65280;BME280;51878;55.748;48.742;2023-06-10T06:23:04;99243.50;;;14.70;100.00
65280;BME280;51878;55.748;48.742;2023-06-10T06:28:07;99207.22;;;14.62;100.00
65280;BME280;51878;55.748;48.742;2023-06-10T06:33:11;99221.00;;;14.74;100.00
65280;BME280;51878;55.748;48.742;2023-06-10T06:38:13;99192.88;;;14.74;100.00
65280;BME280;51878;55.748;48.742;2023-06-10T06:43:15;99213.66;;;15.06;100.00
65280;BME280;51878;55.748;48.742;2023-06-10T06:48:19;99241.91;;;15.44;100.00
65280;BME280;51878;55.748;48.742;2023-06-10T06:53:21;99236.75;;;15.54;100.00
65280;BME280;51878;55.748;48.742;2023-06-10T06:58:24;99217.56;;;15.61;100.00
65280;BME280;51878;55.748;48.742;2023-06-10T07:03:26;99237.63;;;15.80;100.00
65280;BME280;51878;55.748;48.742;2023-06-10T07:08:29;99216.22;;;15.77;100.00
65280;BME280;51878;55.748;48.742;2023-06-10T07:13:31;99271.28;;;16.17;100.00
65280;BME280;51878;55.748;48.742;2023-06-10T07:18:33;99273.03;;;16.11;100.00
65280;BME280;51878;55.748;48.742;2023-06-10T07:23:35;99273.88;;;16.12;100.00
65280;BME280;51878;55.748;48.742;2023-06-10T07:28:37;99225.69;;;15.49;100.00
65280;BME280;51878;55.748;48.742;2023-06-10T07:33:40;99238.91;;;15.52;100.00
65280;BME280;51878;55.748;48.742;2023-06-10T07:38:42;99276.19;;;15.65;100.00
65280;BME280;51878;55.748;48.742;2023-06-10T07:43:44;99250.72;;;15.46;100.00
65280;BME280;51878;55.748;48.742;2023-06-10T07:48:47;99284.03;;;15.86;100.00
65280;BME280;51878;55.748;48.742;2023-06-10T07:53:50;99252.84;;;15.94;100.00
65280;BME280;51878;55.748;48.742;2023-06-10T07:58:52;99258.09;;;16.14;100.00
65280;BME280;51878;55.748;48.742;2023-06-10T08:03:54;99256.81;;;16.65;100.00
65280;BME280;51878;55.748;48.742;2023-06-10T08:08:56;99295.03;;;17.21;99.35
65280;BME280;51878;55.748;48.742;2023-06-10T08:13:59;99300.09;;;17.35;93.70
65280;BME280;51878;55.748;48.742;2023-06-10T08:19:01;99260.34;;;17.14;89.75
65280;BME280;51878;55.748;48.742;2023-06-10T08:24:03;99286.19;;;17.07;88.97
65280;BME280;51878;55.748;48.742;2023-06-10T08:29:06;99324.75;;;17.05;89.31
65280;BME280;51878;55.748;48.742;2023-06-10T08:34:08;99336.47;;;16.82;91.07
65280;BME280;51878;55.748;48.742;2023-06-10T08:39:11;99333.16;;;16.55;91.79
65280;BME280;51878;55.748;48.742;2023-06-10T08:44:17;99343.66;;;16.58;92.69
65280;BME280;51878;55.748;48.742;2023-06-10T08:49:24;99349.84;;;16.53;92.63
65280;BME280;51878;55.748;48.742;2023-06-10T08:54:31;99346.91;;;16.48;89.53
65280;BME280;51878;55.748;48.742;2023-06-10T08:59:50;99340.84;;;16.28;88.90
65280;BME280;51878;55.748;48.742;2023-06-10T09:04:56;99343.94;;;16.13;86.29
65280;BME280;51878;55.748;48.742;2023-06-10T09:10:00;99282.88;;;15.69;85.01
65280;BME280;51878;55.748;48.742;2023-06-10T09:15:07;99315.84;;;15.81;81.87
65280;BME280;51878;55.748;48.742;2023-06-10T09:20:10;99357.16;;;15.91;80.55
65280;BME280;51878;55.748;48.742;2023-06-10T09:25:13;99359.91;;;15.91;77.13
65280;BME280;51878;55.748;48.742;2023-06-10T09:30:29;99321.47;;;15.54;74.09
65280;BME280;51878;55.748;48.742;2023-06-10T09:35:32;99366.63;;;15.63;72.67
65280;BME280;51878;55.748;48.742;2023-06-10T09:40:48;99321.66;;;15.59;74.57
65280;BME280;51878;55.748;48.742;2023-06-10T09:45:51;99286.75;;;15.61;73.39
65280;BME280;51878;55.748;48.742;2023-06-10T09:50:58;99369.75;;;15.99;73.01
65280;BME280;51878;55.748;48.742;2023-06-10T09:56:00;99330.91;;;15.90;73.63
65280;BME280;51878;55.748;48.742;2023-06-10T10:01:08;99260.72;;;16.02;70.36
65280;BME280;51878;55.748;48.742;2023-06-10T10:06:11;99323.28;;;16.54;67.32
65280;BME280;51878;55.748;48.742;2023-06-10T10:11:16;99320.91;;;16.76;66.05
65280;BME280;51878;55.748;48.742;2023-06-10T10:16:36;99325.09;;;16.79;64.72
65280;BME280;51878;55.748;48.742;2023-06-10T10:21:52;99339.69;;;16.91;63.06
65280;BME280;51878;55.748;48.742;2023-06-10T10:26:59;99346.44;;;17.07;61.96
65280;BME280;51878;55.748;48.742;2023-06-10T10:32:03;99330.22;;;17.35;60.08
65280;BME280;51878;55.748;48.742;2023-06-10T10:37:09;99348.56;;;18.83;56.01
65280;BME280;51878;55.748;48.742;2023-06-10T10:42:13;99316.44;;;20.09;51.70
65280;BME280;51878;55.748;48.742;2023-06-10T10:47:22;99352.38;;;20.75;46.59
65280;BME280;51878;55.748;48.742;2023-06-10T10:52:50;99326.91;;;21.66;43.67
65280;BME280;51878;55.748;48.742;2023-06-10T10:58:03;99378.00;;;21.74;41.86
65280;BME280;51878;55.748;48.742;2023-06-10T11:03:06;99329.16;;;20.71;43.57
65280;BME280;51878;55.748;48.742;2023-06-10T11:08:13;99361.16;;;20.55;43.67
65280;BME280;51878;55.748;48.742;2023-06-10T11:13:20;99363.38;;;20.19;45.17
65280;BME280;51878;55.748;48.742;2023-06-10T11:18:26;99359.03;;;20.06;44.91
65280;BME280;51878;55.748;48.742;2023-06-10T11:23:48;99367.72;;;19.81;45.37
65280;BME280;51878;55.748;48.742;2023-06-10T11:33:57;99356.19;;;20.74;46.04
65280;BME280;51878;55.748;48.742;2023-06-10T11:39:02;99354.06;;;23.12;41.84
65280;BME280;51878;55.748;48.742;2023-06-10T11:44:11;99322.88;;;24.34;36.50
65280;BME280;51878;55.748;48.742;2023-06-10T11:49:16;99322.84;;;24.55;34.14
65280;BME280;51878;55.748;48.742;2023-06-10T11:54:18;99360.31;;;24.11;34.43
65280;BME280;51878;55.748;48.742;2023-06-10T11:59:27;99381.84;;;25.41;32.29
65280;BME280;51878;55.748;48.742;2023-06-10T12:04:29;99348.50;;;27.22;30.48
65280;BME280;51878;55.748;48.742;2023-06-10T12:09:31;99376.81;;;27.67;29.24
65280;BME280;51878;55.748;48.742;2023-06-10T12:14:55;99355.66;;;27.04;28.39
65280;BME280;51878;55.748;48.742;2023-06-10T12:20:01;99346.88;;;28.24;27.89
65280;BME280;51878;55.748;48.742;2023-06-10T12:25:07;99411.94;;;29.27;26.85
65280;BME280;51878;55.748;48.742;2023-06-10T12:30:10;99352.94;;;28.45;27.11
65280;BME280;51878;55.748;48.742;2023-06-10T12:35:15;99362.69;;;28.89;26.24
65280;BME280;51878;55.748;48.742;2023-06-10T12:40:28;99392.84;;;29.93;25.06
65280;BME280;51878;55.748;48.742;2023-06-10T12:45:32;99425.16;;;31.06;24.40
65280;BME280;51878;55.748;48.742;2023-06-10T12:50:36;99386.94;;;31.10;21.82
65280;BME280;51878;55.748;48.742;2023-06-10T12:55:39;99419.72;;;31.67;22.32
65280;BME280;51878;55.748;48.742;2023-06-10T13:00:42;99400.72;;;32.43;21.30
65280;BME280;51878;55.748;48.742;2023-06-10T13:05:44;99379.19;;;30.67;23.10
65280;BME280;51878;55.748;48.742;2023-06-10T13:10:46;99343.06;;;29.81;23.44
65280;BME280;51878;55.748;48.742;2023-06-10T13:15:52;99401.31;;;30.46;22.78
65280;BME280;51878;55.748;48.742;2023-06-10T13:20:55;99302.88;;;31.02;22.90
65280;BME280;51878;55.748;48.742;2023-06-10T13:25:58;99428.88;;;30.62;22.61
65280;BME280;51878;55.748;48.742;2023-06-10T13:31:01;99434.44;;;30.53;22.98
65280;BME280;51878;55.748;48.742;2023-06-10T13:36:04;99423.75;;;30.86;22.11
65280;BME280;51878;55.748;48.742;2023-06-10T13:41:06;99407.50;;;30.35;22.14
65280;BME280;51878;55.748;48.742;2023-06-10T13:46:09;99402.91;;;29.30;22.64
65280;BME280;51878;55.748;48.742;2023-06-10T13:51:11;99448.44;;;28.23;24.61
65280;BME280;51878;55.748;48.742;2023-06-10T13:56:13;99421.03;;;25.89;26.80
65280;BME280;51878;55.748;48.742;2023-06-10T14:01:16;99442.41;;;26.28;26.45
65280;BME280;51878;55.748;48.742;2023-06-10T14:06:18;99454.41;;;28.16;24.81
65280;BME280;51878;55.748;48.742;2023-06-10T14:11:20;99420.59;;;28.83;22.93
65280;BME280;51878;55.748;48.742;2023-06-10T14:16:25;99446.59;;;29.12;23.22
65280;BME280;51878;55.748;48.742;2023-06-10T14:21:28;99459.34;;;28.38;22.03
65280;BME280;51878;55.748;48.742;2023-06-10T14:26:30;99454.63;;;28.20;23.17
65280;BME280;51878;55.748;48.742;2023-06-10T14:31:34;99454.09;;;26.89;23.99
65280;BME280;51878;55.748;48.742;2023-06-10T14:36:37;99470.31;;;27.06;25.09
65280;BME280;51878;55.748;48.742;2023-06-10T14:41:39;99442.53;;;27.00;24.58
65280;BME280;51878;55.748;48.742;2023-06-10T14:46:42;99442.81;;;26.75;24.62
65280;BME280;51878;55.748;48.742;2023-06-10T14:51:44;99477.88;;;26.42;25.17
65280;BME280;51878;55.748;48.742;2023-06-10T14:56:47;99441.31;;;25.30;25.81
65280;BME280;51878;55.748;48.742;2023-06-10T15:01:54;99487.50;;;24.80;26.77
65280;BME280;51878;55.748;48.742;2023-06-10T15:06:56;99461.59;;;23.66;28.31
65280;BME280;51878;55.748;48.742;2023-06-10T15:11:58;99465.28;;;22.72;29.22
65280;BME280;51878;55.748;48.742;2023-06-10T15:17:08;99402.41;;;21.11;30.34
65280;BME280;51878;55.748;48.742;2023-06-10T15:22:12;99421.22;;;20.02;32.16
65280;BME280;51878;55.748;48.742;2023-06-10T15:27:15;99450.50;;;19.79;33.18
65280;BME280;51878;55.748;48.742;2023-06-10T15:32:17;99532.41;;;19.49;34.33
65280;BME280;51878;55.748;48.742;2023-06-10T15:37:20;99554.97;;;18.98;35.41
65280;BME280;51878;55.748;48.742;2023-06-10T15:42:23;99534.25;;;18.07;36.34
65280;BME280;51878;55.748;48.742;2023-06-10T15:47:25;99519.50;;;17.41;37.27
65280;BME280;51878;55.748;48.742;2023-06-10T15:52:28;99547.28;;;17.07;38.67
65280;BME280;51878;55.748;48.742;2023-06-10T15:57:30;99546.94;;;16.72;39.19
65280;BME280;51878;55.748;48.742;2023-06-10T16:02:32;99562.81;;;16.38;40.21
65280;BME280;51878;55.748;48.742;2023-06-10T16:07:37;99538.34;;;15.80;41.13
65280;BME280;51878;55.748;48.742;2023-06-10T16:12:41;99557.50;;;15.66;41.87
65280;BME280;51878;55.748;48.742;2023-06-10T16:17:45;99541.94;;;15.22;43.05
65280;BME280;51878;55.748;48.742;2023-06-10T16:22:49;99590.66;;;15.25;43.43
65280;BME280;51878;55.748;48.742;2023-06-10T16:27:53;99483.47;;;14.31;44.03
65280;BME280;51878;55.748;48.742;2023-06-10T16:32:56;99570.78;;;14.71;45.10
65280;BME280;51878;55.748;48.742;2023-06-10T16:37:59;99497.06;;;13.84;47.44
65280;BME280;51878;55.748;48.742;2023-06-10T16:43:04;99570.69;;;14.04;48.52
65280;BME280;51878;55.748;48.742;2023-06-10T16:48:06;99617.47;;;14.15;48.33
65280;BME280;51878;55.748;48.742;2023-06-10T16:53:09;99620.34;;;13.93;48.64
65280;BME280;51878;55.748;48.742;2023-06-10T16:58:11;99586.19;;;13.49;49.94
65280;BME280;51878;55.748;48.742;2023-06-10T17:03:13;99619.53;;;13.51;50.48
65280;BME280;51878;55.748;48.742;2023-06-10T17:08:15;99590.59;;;13.15;51.51
65280;BME280;51878;55.748;48.742;2023-06-10T17:13:18;99635.41;;;13.13;52.36
65280;BME280;51878;55.748;48.742;2023-06-10T17:18:20;99646.38;;;12.98;52.97
65280;BME280;51878;55.748;48.742;2023-06-10T17:23:23;99593.91;;;12.54;54.18
65280;BME280;51878;55.748;48.742;2023-06-10T17:28:25;99610.50;;;12.38;55.22
65280;BME280;51878;55.748;48.742;2023-06-10T17:33:27;99644.72;;;12.32;56.09
65280;BME280;51878;55.748;48.742;2023-06-10T17:38:30;99648.81;;;12.22;56.35
65280;BME280;51878;55.748;48.742;2023-06-10T17:43:32;99642.88;;;11.96;57.21
65280;BME280;51878;55.748;48.742;2023-06-10T17:48:34;99597.88;;;11.57;56.51
65280;BME280;51878;55.748;48.742;2023-06-10T17:53:36;99615.56;;;11.53;56.90
65280;BME280;51878;55.748;48.742;2023-06-10T17:58:38;99607.44;;;11.38;57.88
65280;BME280;51878;55.748;48.742;2023-06-10T18:03:43;99650.88;;;11.53;58.00
65280;BME280;51878;55.748;48.742;2023-06-10T18:08:45;99626.53;;;11.30;58.91
65280;BME280;51878;55.748;48.742;2023-06-10T18:13:49;99646.19;;;11.32;59.90
65280;BME280;51878;55.748;48.742;2023-06-10T18:18:51;99586.75;;;10.93;60.73
65280;BME280;51878;55.748;48.742;2023-06-10T18:23:54;99621.94;;;11.01;62.11
65280;BME280;51878;55.748;48.742;2023-06-10T18:28:57;99667.03;;;11.17;63.30
65280;BME280;51878;55.748;48.742;2023-06-10T18:33:59;99646.06;;;10.96;62.83
65280;BME280;51878;55.748;48.742;2023-06-10T18:39:03;99665.88;;;10.96;63.52
65280;BME280;51878;55.748;48.742;2023-06-10T18:44:06;99686.22;;;11.01;63.92
65280;BME280;51878;55.748;48.742;2023-06-10T18:49:08;99668.66;;;10.88;64.35
65280;BME280;51878;55.748;48.742;2023-06-10T18:54:13;99554.78;;;10.04;64.64
65280;BME280;51878;55.748;48.742;2023-06-10T18:59:15;99668.81;;;10.72;65.03
65280;BME280;51878;55.748;48.742;2023-06-10T19:04:17;99652.88;;;10.54;64.60
65280;BME280;51878;55.748;48.742;2023-06-10T19:09:20;99685.28;;;10.70;65.08
65280;BME280;51878;55.748;48.742;2023-06-10T19:14:22;99611.56;;;10.21;65.78
65280;BME280;51878;55.748;48.742;2023-06-10T19:19:24;99678.53;;;10.43;66.03
65280;BME280;51878;55.748;48.742;2023-06-10T19:24:26;99697.09;;;10.54;66.83
65280;BME280;51878;55.748;48.742;2023-06-10T19:29:31;99687.31;;;10.45;67.32
65280;BME280;51878;55.748;48.742;2023-06-10T19:34:33;99695.50;;;10.37;67.97
65280;BME280;51878;55.748;48.742;2023-06-10T19:39:36;99698.25;;;10.29;68.97
65280;BME280;51878;55.748;48.742;2023-06-10T19:44:38;99710.28;;;10.26;70.28
65280;BME280;51878;55.748;48.742;2023-06-10T19:49:40;99697.28;;;10.13;71.14
65280;BME280;51878;55.748;48.742;2023-06-10T19:54:43;99705.63;;;10.12;72.00
65280;BME280;51878;55.748;48.742;2023-06-10T19:59:46;99687.44;;;9.89;73.64
65280;BME280;51878;55.748;48.742;2023-06-10T20:04:48;99626.34;;;9.47;73.64
65280;BME280;51878;55.748;48.742;2023-06-10T20:09:50;99708.78;;;9.84;75.33
65280;BME280;51878;55.748;48.742;2023-06-10T20:14:52;99702.25;;;9.70;76.58
65280;BME280;51878;55.748;48.742;2023-06-10T20:19:55;99669.69;;;9.39;76.42
65280;BME280;51878;55.748;48.742;2023-06-10T20:24:58;99708.03;;;9.59;77.04
65280;BME280;51878;55.748;48.742;2023-06-10T20:30:00;99713.78;;;9.48;77.11
65280;BME280;51878;55.748;48.742;2023-06-10T20:35:05;99603.91;;;8.75;77.60
65280;BME280;51878;55.748;48.742;2023-06-10T20:40:08;99617.41;;;8.75;77.95
65280;BME280;51878;55.748;48.742;2023-06-10T20:45:12;99637.69;;;8.87;78.64
65280;BME280;51878;55.748;48.742;2023-06-10T20:50:14;99737.53;;;9.29;79.81
65280;BME280;51878;55.748;48.742;2023-06-10T20:55:17;99687.19;;;8.96;80.31
65280;BME280;51878;55.748;48.742;2023-06-10T21:00:19;99730.13;;;9.15;80.19
65280;BME280;51878;55.748;48.742;2023-06-10T21:05:21;99692.28;;;8.82;81.79
65280;BME280;51878;55.748;48.742;2023-06-10T21:10:24;99726.03;;;8.95;82.24
65280;BME280;51878;55.748;48.742;2023-06-10T21:15:26;99735.69;;;8.97;84.22
65280;BME280;51878;55.748;48.742;2023-06-10T21:20:28;99699.84;;;8.71;84.83
65280;BME280;51878;55.748;48.742;2023-06-10T21:25:30;99615.00;;;8.06;84.80
65280;BME280;51878;55.748;48.742;2023-06-10T21:30:33;99715.41;;;8.60;85.26
65280;BME280;51878;55.748;48.742;2023-06-10T21:35:35;99714.19;;;8.55;85.13
65280;BME280;51878;55.748;48.742;2023-06-10T21:40:39;99726.19;;;8.52;84.90
65280;BME280;51878;55.748;48.742;2023-06-10T21:45:41;99720.22;;;8.32;86.80
65280;BME280;51878;55.748;48.742;2023-06-10T21:50:46;99788.72;;;8.65;86.63
65280;BME280;51878;55.748;48.742;2023-06-10T21:55:49;99704.44;;;8.03;88.92
65280;BME280;51878;55.748;48.742;2023-06-10T22:00:51;99731.97;;;8.15;88.80
65280;BME280;51878;55.748;48.742;2023-06-10T22:05:57;99739.06;;;8.07;89.17
65280;BME280;51878;55.748;48.742;2023-06-10T22:11:06;99789.63;;;8.32;88.95
65280;BME280;51878;55.748;48.742;2023-06-10T22:16:11;99777.56;;;8.18;89.24
65280;BME280;51878;55.748;48.742;2023-06-10T22:21:13;99777.41;;;8.19;89.13
65280;BME280;51878;55.748;48.742;2023-06-10T22:26:17;99746.78;;;8.02;89.47
65280;BME280;51878;55.748;48.742;2023-06-10T22:31:19;99798.03;;;8.20;90.19
65280;BME280;51878;55.748;48.742;2023-06-10T22:36:24;99824.19;;;8.28;90.83
65280;BME280;51878;55.748;48.742;2023-06-10T22:41:29;99796.31;;;8.19;90.77
65280;BME280;51878;55.748;48.742;2023-06-10T22:46:34;99779.38;;;8.09;90.40
65280;BME280;51878;55.748;48.742;2023-06-10T22:51:36;99816.09;;;8.28;90.35
65280;BME280;51878;55.748;48.742;2023-06-10T22:56:41;99769.53;;;7.92;89.88
65280;BME280;51878;55.748;48.742;2023-06-10T23:01:44;99809.09;;;8.09;90.17
65280;BME280;51878;55.748;48.742;2023-06-10T23:06:48;99820.25;;;8.14;89.79
65280;BME280;51878;55.748;48.742;2023-06-10T23:11:51;99782.00;;;7.93;89.77
65280;BME280;51878;55.748;48.742;2023-06-10T23:16:53;99823.28;;;8.11;89.52
65280;BME280;51878;55.748;48.742;2023-06-10T23:21:56;99815.44;;;8.00;89.82
65280;BME280;51878;55.748;48.742;2023-06-10T23:27:02;99786.00;;;7.80;90.10
65280;BME280;51878;55.748;48.742;2023-06-10T23:32:04;99849.13;;;8.14;89.93
65280;BME280;51878;55.748;48.742;2023-06-10T23:37:08;99855.53;;;8.13;89.45
65280;BME280;51878;55.748;48.742;2023-06-10T23:42:12;99866.97;;;8.06;90.02
65280;BME280;51878;55.748;48.742;2023-06-10T23:47:14;99841.34;;;7.84;89.85
65280;BME280;51878;55.748;48.742;2023-06-10T23:52:20;99818.06;;;7.57;91.54
65280;BME280;51878;55.748;48.742;2023-06-10T23:57:26;99827.63;;;7.52;91.04
